Hauptseite
METAR-TAF:

METAR-TAF

Flughäfen :

Flughafen Marshallinseln

Majuro, Marshallinseln

Breite: 07-04N, Länge: 171-17E, Höhe: 2 m

Beobachtung

Neuester Wetterbericht von vor 9 Stunden und 50 Minuten, um 08:53 UTC
Wind 5 kt aus Ost
Temperatur 28°C
Luftfeuchtigkeit 84%
Luftdruck 1009 hPa
Sichtweite: 24.1 km
Leicht bewölkt in der Höhe von 1500 ft
Aufgelockert bewölkt in der Höhe von 5000 ft
Durchbrochene Bewölkung in der Höhe von 12000 ft
Geschlossene Wolkendecke in der Höhe von 30000 ft

METAR: PKMJ 170853Z 09005KT 15SM FEW015 SCT050 BKN120 OVC300 28/25 A2981 RMK LAST

Zeit: 06:43 (18:43 UTC)

Prognose

Neuester Wetterbericht von vor 1 Stunde und 5 Minuten, um 17:38 UTC
Gültige Prognose vom 17 um 18 UTC bis 18 um 18 UTC
Wind 8 kt aus Ost
Sichtweite: 10 km
Aufgelockert bewölkt in der Höhe von 1500 ft
Aufgelockert bewölkt in der Höhe von 5000 ft

TAF: PKMJ 171738Z 1718/1818 09008KT P6SM SCT015 SCT050

Wetterbeobachtungen und Prognosen von mehr als 4000 Flughäfen (METAR und TAF Bericht).

Die verfügbaren Stationen werden durch gelbe und rote Markierungen auf der Karte dargestellt.

Führen Sie die Maus auf sie, um den Namen der Station zu sehen.

Darauf klicken, um die Beobachtung von Wetterbeobachtungen und Prognosen zu sehen.

Um die Karte zu ändern : klicken Sie auf den grünen Tasten mit einem schwarzen Kreuz Zum Vergrößern, auf den grünen Button mit einem Gedankenstrich zu verkleinern, oder auf die grünen Pfeile für benachbarte Karten.


METAR-TAF: